Time,TemperatureF,DewpointF,PressureIn,WindDirection,WindDirectionDegrees,WindSpeedMPH,WindSpeedGustMPH,Humidity,HourlyPrecipIn,Conditions,Clouds,dailyrainin,SoftwareType,DateUTC
2013-08-18 00:12:00,66.0,52.0,30.15,East,90,3.0,-999.0,59,-99.99,,,-99.99,,2013-08-18 05:12:00,
2013-08-18 00:22:00,66.0,54.0,30.15,North,0,0.0,-999.0,63,-99.99,,,-99.99,,2013-08-18 05:22:00,
2013-08-18 00:52:00,64.0,54.0,30.15,North,0,0.0,-999.0,67,-99.99,,,-99.99,,2013-08-18 05:52:00,
2013-08-18 01:11:00,63.0,54.0,30.15,North,0,0.0,-999.0,72,-99.99,,,-99.99,,2013-08-18 06:11:00,
2013-08-18 01:21:00,61.0,54.0,30.15,North,0,0.0,-999.0,77,-99.99,,,-99.99,,2013-08-18 06:21:00,
2013-08-18 01:52:00,61.0,55.0,30.15,North,0,0.0,-999.0,82,-99.99,,,-99.99,,2013-08-18 06:52:00,
2013-08-18 02:11:00,59.0,55.0,30.15,North,0,0.0,-999.0,87,-99.99,,,-99.99,,2013-08-18 07:11:00,
2013-08-18 02:21:00,59.0,55.0,30.16,North,0,0.0,-999.0,87,-99.99,,,-99.99,,2013-08-18 07:21:00,
2013-08-18 02:52:00,59.0,55.0,30.16,North,0,0.0,-999.0,87,-99.99,,,-99.99,,2013-08-18 07:52:00,
2013-08-18 03:12:00,59.0,55.0,30.16,North,0,0.0,-999.0,87,-99.99,,,-99.99,,2013-08-18 08:12:00,
2013-08-18 03:21:00,59.0,55.0,30.16,North,0,0.0,-999.0,87,-99.99,,,-99.99,,2013-08-18 08:21:00,
2013-08-18 03:52:00,59.0,55.0,30.15,North,0,0.0,-999.0,87,-99.99,,,-99.99,,2013-08-18 08:52:00,
2013-08-18 04:11:00,57.0,55.0,30.15,North,0,0.0,-999.0,93,-99.99,,,-99.99,,2013-08-18 09:11:00,
2013-08-18 04:21:00,59.0,55.0,30.16,North,0,0.0,-999.0,87,-99.99,,,-99.99,,2013-08-18 09:21:00,
2013-08-18 04:53:00,59.0,55.0,30.15,North,0,0.0,-999.0,87,-99.99,,,-99.99,,2013-08-18 09:53:00,
2013-08-18 05:13:00,59.0,57.0,30.16,North,0,0.0,-999.0,93,-99.99,,,-99.99,,2013-08-18 10:13:00,
2013-08-18 05:22:00,59.0,55.0,30.16,North,0,0.0,-999.0,87,-99.99,,,-99.99,,2013-08-18 10:22:00,
2013-08-18 05:52:00,59.0,55.0,30.17,North,0,0.0,-999.0,87,-99.99,,,-99.99,,2013-08-18 10:52:00,
2013-08-18 06:11:00,57.0,55.0,30.17,North,0,0.0,-999.0,93,-99.99,,,-99.99,,2013-08-18 11:11:00,
2013-08-18 06:22:00,59.0,55.0,30.18,North,0,0.0,-999.0,87,-99.99,,,-99.99,,2013-08-18 11:22:00,
2013-08-18 06:52:00,61.0,57.0,30.18,North,0,0.0,-999.0,87,-99.99,,,-99.99,,2013-08-18 11:52:00,
2013-08-18 07:11:00,61.0,57.0,30.19,North,0,0.0,-999.0,87,-99.99,,,-99.99,,2013-08-18 12:11:00,
2013-08-18 07:21:00,61.0,57.0,30.19,North,0,0.0,-999.0,87,-99.99,,,-99.99,,2013-08-18 12:21:00,
2013-08-18 07:52:00,63.0,59.0,30.19,North,0,0.0,-999.0,88,-99.99,,,-99.99,,2013-08-18 12:52:00,
2013-08-18 08:11:00,64.0,59.0,30.20,North,0,0.0,-999.0,82,-99.99,,,-99.99,,2013-08-18 13:11:00,
2013-08-18 08:52:00,68.0,59.0,30.20,North,0,0.0,-999.0,72,-99.99,,,-99.99,,2013-08-18 13:52:00,
2013-08-18 09:11:00,70.0,57.0,30.21,North,0,0.0,-999.0,64,-99.99,,,-99.99,,2013-08-18 14:11:00,
2013-08-18 09:53:00,73.0,55.0,30.21,North,0,0.0,-999.0,53,-99.99,,,-99.99,,2013-08-18 14:53:00,
2013-08-18 10:11:00,73.0,55.0,30.21,North,0,0.0,-999.0,53,-99.99,,,-99.99,,2013-08-18 15:11:00,
2013-08-18 10:22:00,75.0,57.0,30.21,ENE,70,3.0,-999.0,53,-99.99,,,-99.99,,2013-08-18 15:22:00,
2013-08-18 11:13:00,79.0,55.0,30.21,NNE,30,3.0,-999.0,44,-99.99,,,-99.99,,2013-08-18 16:13:00,
2013-08-18 11:23:00,79.0,57.0,30.20,ENE,60,5.0,-999.0,47,-99.99,,,-99.99,,2013-08-18 16:23:00,
2013-08-18 11:52:00,81.0,55.0,30.20,North,0,0.0,-999.0,41,-99.99,,,-99.99,,2013-08-18 16:52:00,
2013-08-18 12:13:00,81.0,55.0,30.20,East,100,5.0,-999.0,41,-99.99,,,-99.99,,2013-08-18 17:13:00,
2013-08-18 12:23:00,81.0,55.0,30.20,North,0,0.0,-999.0,41,-99.99,,,-99.99,,2013-08-18 17:23:00,
2013-08-18 12:33:00,81.0,55.0,30.20,North,0,0.0,-999.0,41,-99.99,,,-99.99,,2013-08-18 17:33:00,
2013-08-18 12:42:00,81.0,55.0,30.20,North,0,0.0,-999.0,41,-99.99,,,-99.99,,2013-08-18 17:42:00,
2013-08-18 12:52:00,81.0,55.0,30.20,North,0,0.0,-999.0,41,-99.99,,,-99.99,,2013-08-18 17:52:00,
2013-08-18 14:52:00,84.0,55.0,30.15,ENE,60,3.0,-999.0,37,-99.99,,,-99.99,,2013-08-18 19:52:00,
2013-08-18 16:21:00,86.0,55.0,30.12,East,80,5.0,-999.0,35,-99.99,,,-99.99,,2013-08-18 21:21:00,
2013-08-18 16:53:00,86.0,55.0,30.12,ESE,120,6.0,-999.0,35,-99.99,,,-99.99,,2013-08-18 21:53:00,
2013-08-18 17:13:00,86.0,54.0,30.11,ESE,110,3.0,-999.0,33,-99.99,,,-99.99,,2013-08-18 22:13:00,
2013-08-18 17:23:00,84.0,54.0,30.12,North,0,0.0,-999.0,34,-99.99,,,-99.99,,2013-08-18 22:23:00,
2013-08-18 17:52:00,84.0,55.0,30.11,SE,140,5.0,-999.0,37,-99.99,,,-99.99,,2013-08-18 22:52:00,
2013-08-18 18:11:00,84.0,55.0,30.11,SE,130,3.0,-999.0,37,-99.99,,,-99.99,,2013-08-18 23:11:00,
2013-08-18 18:22:00,82.0,57.0,30.11,North,0,0.0,-999.0,42,-99.99,,,-99.99,,2013-08-18 23:22:00,
2013-08-18 18:52:00,82.0,57.0,30.11,North,0,0.0,-999.0,42,-99.99,,,-99.99,,2013-08-18 23:52:00,
2013-08-18 19:11:00,81.0,59.0,30.11,North,0,0.0,-999.0,47,-99.99,,,-99.99,,2013-08-19 00:11:00,
2013-08-18 19:21:00,81.0,61.0,30.11,North,0,0.0,-999.0,50,-99.99,,,-99.99,,2013-08-19 00:21:00,
2013-08-18 19:52:00,75.0,63.0,30.11,North,0,0.0,-999.0,64,-99.99,,,-99.99,,2013-08-19 00:52:00,
2013-08-18 20:11:00,75.0,61.0,30.11,North,0,0.0,-999.0,60,-99.99,,,-99.99,,2013-08-19 01:11:00,
2013-08-18 21:11:00,70.0,59.0,30.12,North,0,0.0,-999.0,68,-99.99,,,-99.99,,2013-08-19 02:11:00,
2013-08-18 21:21:00,70.0,59.0,30.12,North,0,0.0,-999.0,68,-99.99,,,-99.99,,2013-08-19 02:21:00,
2013-08-18 21:52:00,70.0,59.0,30.13,North,0,0.0,-999.0,68,-99.99,,,-99.99,,2013-08-19 02:52:00,
2013-08-18 22:11:00,72.0,59.0,30.13,ESE,120,3.0,-999.0,64,-99.99,,,-99.99,,2013-08-19 03:11:00,
2013-08-18 22:21:00,73.0,57.0,30.13,North,0,0.0,-999.0,56,-99.99,,,-99.99,,2013-08-19 03:21:00,
2013-08-18 22:53:00,72.0,57.0,30.13,North,0,0.0,-999.0,60,-99.99,,,-99.99,,2013-08-19 03:53:00,
2013-08-18 23:12:00,72.0,57.0,30.13,SE,130,3.0,-999.0,60,-99.99,,,-99.99,,2013-08-19 04:12:00,
2013-08-18 23:23:00,72.0,59.0,30.13,ESE,120,3.0,-999.0,64,-99.99,,,-99.99,,2013-08-19 04:23:00,
2013-08-18 23:53:00,70.0,59.0,30.13,SE,140,5.0,-999.0,68,-99.99,,,-99.99,,2013-08-19 04:53:00,